createdAt,value
2018-02-16T00:00:03.531Z,101164.64
2018-02-16T00:02:31.362Z,101162.63
2018-02-16T00:04:58.883Z,101165.96
2018-02-16T00:07:26.435Z,101176.55
2018-02-16T00:09:53.947Z,101174.59
2018-02-16T00:12:21.502Z,101181.96
2018-02-16T00:14:49.078Z,101179.03
2018-02-16T00:17:16.611Z,101180.44
2018-02-16T00:19:44.154Z,101184.20
2018-02-16T00:22:13.486Z,101178.59
2018-02-16T00:24:41.015Z,101180.33
2018-02-16T00:27:08.624Z,101189.25
2018-02-16T00:29:36.160Z,101190.20
2018-02-16T00:32:03.688Z,101196.51
2018-02-16T00:34:31.243Z,101199.32
2018-02-16T00:36:58.788Z,101202.52
2018-02-16T00:39:26.338Z,101203.25
2018-02-16T00:41:53.876Z,101216.34
2018-02-16T00:44:21.402Z,101225.34
2018-02-16T00:46:48.959Z,101223.36
2018-02-16T00:49:16.495Z,101230.31
2018-02-16T00:51:44.048Z,101233.36
2018-02-16T00:54:11.878Z,101239.31
2018-02-16T00:56:39.435Z,101237.69
2018-02-16T00:59:07.304Z,101239.99
2018-02-16T01:01:34.841Z,101240.11
2018-02-16T01:04:02.358Z,101242.96
2018-02-16T01:06:29.918Z,101248.49
2018-02-16T01:08:57.515Z,101247.59
2018-02-16T01:11:25.047Z,101252.65
2018-02-16T01:13:52.596Z,101251.19
2018-02-16T01:16:20.446Z,101253.80
2018-02-16T01:18:48.011Z,101262.41
2018-02-16T01:21:15.545Z,101258.40
2018-02-16T01:23:43.322Z,101258.98
2018-02-16T01:26:11.087Z,101255.93
2018-02-16T01:28:38.956Z,101255.66
2018-02-16T01:31:06.498Z,101249.48
2018-02-16T01:33:34.034Z,101250.55
2018-02-16T01:36:01.590Z,101237.00
2018-02-16T01:38:29.120Z,101238.79
2018-02-16T01:40:56.700Z,101248.33
2018-02-16T01:45:58.229Z,101255.55
2018-02-16T01:48:25.809Z,101258.83
2018-02-16T01:50:53.322Z,101258.94
2018-02-16T01:53:21.227Z,101268.63
2018-02-16T01:55:48.793Z,101279.64
2018-02-16T01:58:16.645Z,101278.91
2018-02-16T02:00:44.187Z,101283.17
2018-02-16T02:03:11.729Z,101274.37
2018-02-16T02:05:39.327Z,101273.01
2018-02-16T02:08:06.867Z,101278.06
2018-02-16T02:10:34.674Z,101273.74
2018-02-16T02:13:02.191Z,101272.48
2018-02-16T02:15:29.743Z,101279.91
2018-02-16T02:17:57.278Z,101281.33
2018-02-16T02:20:24.814Z,101282.12
2018-02-16T02:22:52.373Z,101287.62
2018-02-16T02:25:19.890Z,101291.92
2018-02-16T02:27:47.693Z,101294.09
2018-02-16T02:30:15.562Z,101300.52
2018-02-16T02:32:43.117Z,101312.86
2018-02-16T02:35:10.659Z,101318.41
2018-02-16T02:37:38.197Z,101322.05
2018-02-16T02:40:05.786Z,101331.64
2018-02-16T02:42:33.321Z,101336.38
2018-02-16T02:45:00.856Z,101339.19
2018-02-16T02:47:28.943Z,101338.22
2018-02-16T02:49:56.473Z,101337.17
2018-02-16T02:52:24.008Z,101346.09
2018-02-16T02:54:51.566Z,101345.16
2018-02-16T02:57:19.122Z,101350.31
2018-02-16T02:59:46.659Z,101351.91
2018-02-16T03:02:14.465Z,101355.06
2018-02-16T03:04:42.003Z,101359.08
2018-02-16T03:07:09.563Z,101359.13
2018-02-16T03:09:37.129Z,101365.76
2018-02-16T03:12:04.710Z,101367.34
2018-02-16T03:14:32.231Z,101372.95
2018-02-16T03:16:59.806Z,101379.06
2018-02-16T03:19:27.334Z,101375.80
2018-02-16T03:21:55.147Z,101381.34
2018-02-16T03:24:22.712Z,101383.17
2018-02-16T03:26:50.298Z,101377.48
2018-02-16T03:29:17.845Z,101378.23
2018-02-16T03:31:45.407Z,101387.68
2018-02-16T03:34:12.939Z,101390.84
2018-02-16T03:36:40.453Z,101396.22
2018-02-16T03:39:07.998Z,101396.52
2018-02-16T03:41:35.542Z,101401.90
2018-02-16T03:44:03.070Z,101402.80
2018-02-16T03:46:30.624Z,101399.80
2018-02-16T03:48:58.166Z,101394.11
2018-02-16T03:51:25.701Z,101402.95
2018-02-16T03:53:53.347Z,101399.43
2018-02-16T03:56:20.882Z,101409.26
2018-02-16T03:58:48.426Z,101408.61
2018-02-16T04:01:15.998Z,101406.72
2018-02-16T04:03:43.520Z,101413.98
2018-02-16T04:06:11.065Z,101410.77
2018-02-16T04:08:38.642Z,101415.99
2018-02-16T04:11:06.200Z,101413.23
2018-02-16T04:13:33.739Z,101417.77
2018-02-16T04:16:01.310Z,101419.81
2018-02-16T04:18:28.859Z,101418.87
2018-02-16T04:20:56.707Z,101425.94
2018-02-16T04:23:24.357Z,101428.81
2018-02-16T04:25:52.140Z,101425.27
2018-02-16T04:28:20.003Z,101421.78
2018-02-16T04:30:47.552Z,101431.57
2018-02-16T04:33:15.435Z,101425.30
2018-02-16T04:35:42.965Z,101434.77
2018-02-16T04:38:10.537Z,101443.14
2018-02-16T04:40:38.070Z,101440.56
2018-02-16T04:43:05.589Z,101448.97
2018-02-16T04:45:33.141Z,101449.81
2018-02-16T04:48:00.677Z,101449.07
2018-02-16T04:50:28.206Z,101451.39
2018-02-16T04:52:56.028Z,101454.69
2018-02-16T04:55:23.550Z,101458.20
2018-02-16T04:57:51.346Z,101458.49
2018-02-16T05:00:18.906Z,101467.91
2018-02-16T05:02:46.426Z,101458.13
2018-02-16T05:05:13.987Z,101461.08
2018-02-16T05:07:41.540Z,101457.94
2018-02-16T05:10:09.073Z,101461.59
2018-02-16T05:12:36.599Z,101470.87
2018-02-16T05:15:04.162Z,101467.98
2018-02-16T05:17:31.949Z,101476.02
2018-02-16T05:19:59.506Z,101479.48
2018-02-16T05:22:27.073Z,101478.34
2018-02-16T05:24:54.608Z,101482.66
2018-02-16T05:27:22.144Z,101491.27
2018-02-16T05:29:49.704Z,101491.69
2018-02-16T05:32:17.243Z,101497.20
2018-02-16T05:34:44.774Z,101500.14
2018-02-16T05:37:12.390Z,101505.94
2018-02-16T05:39:40.189Z,101509.94
2018-02-16T05:42:07.724Z,101510.56
2018-02-16T05:44:35.310Z,101510.13
2018-02-16T05:47:02.835Z,101517.80
2018-02-16T05:49:30.378Z,101516.15
2018-02-16T05:51:57.925Z,101521.70
2018-02-16T05:54:25.463Z,101520.06
2018-02-16T05:56:53.002Z,101520.11
2018-02-16T05:59:20.563Z,101526.17
2018-02-16T06:01:48.404Z,101525.90
2018-02-16T06:04:16.305Z,101523.64
2018-02-16T06:06:43.910Z,101532.02
2018-02-16T06:09:11.461Z,101526.80
2018-02-16T06:11:38.990Z,101536.06
2018-02-16T06:14:06.617Z,101535.44
2018-02-16T06:16:34.297Z,101538.27
2018-02-16T06:19:01.992Z,101539.11
2018-02-16T06:21:29.596Z,101543.07
2018-02-16T06:23:57.138Z,101542.64
2018-02-16T06:26:24.658Z,101535.69
2018-02-16T06:28:52.260Z,101541.43
2018-02-16T06:31:20.145Z,101544.12
2018-02-16T06:33:47.654Z,101548.77
2018-02-16T06:38:49.122Z,101554.78
2018-02-16T06:41:16.690Z,101550.70
2018-02-16T06:43:44.251Z,101552.98
2018-02-16T06:46:11.784Z,101544.61
2018-02-16T06:48:39.407Z,101548.45
2018-02-16T06:51:06.922Z,101550.17
2018-02-16T06:53:34.798Z,101561.83
2018-02-16T06:56:02.408Z,101564.32
2018-02-16T06:58:29.949Z,101577.46
2018-02-16T07:00:57.513Z,101585.26
2018-02-16T07:03:25.385Z,101586.44
2018-02-16T07:05:53.119Z,101581.22
2018-02-16T07:08:20.645Z,101590.33
2018-02-16T07:10:48.435Z,101597.14
2018-02-16T07:13:16.015Z,101591.92
2018-02-16T07:15:43.537Z,101597.51
2018-02-16T07:18:11.124Z,101607.02
2018-02-16T07:20:38.650Z,101602.77
2018-02-16T07:23:06.188Z,101604.55
2018-02-16T07:25:33.770Z,101603.22
2018-02-16T07:28:01.467Z,101613.22
2018-02-16T07:30:29.820Z,101621.30
2018-02-16T07:32:57.391Z,101619.77
2018-02-16T07:35:24.930Z,101623.66
2018-02-16T07:37:52.543Z,101623.80
2018-02-16T07:40:20.723Z,101629.19
2018-02-16T07:42:48.264Z,101625.80
2018-02-16T07:45:15.806Z,101635.17
2018-02-16T07:47:43.368Z,101626.52
2018-02-16T07:50:10.930Z,101638.55
2018-02-16T07:52:38.457Z,101644.55
2018-02-16T07:55:06.015Z,101639.91
2018-02-16T07:57:33.548Z,101633.20
2018-02-16T08:00:01.082Z,101645.71
2018-02-16T08:02:29.832Z,101647.56
2018-02-16T08:04:57.809Z,101644.48
2018-02-16T08:07:25.333Z,101646.32
2018-02-16T08:09:52.917Z,101654.00
2018-02-16T08:12:20.438Z,101653.02
2018-02-16T08:14:48.741Z,101649.67
2018-02-16T08:17:16.314Z,101648.64
2018-02-16T08:19:43.881Z,101646.23
2018-02-16T08:22:11.684Z,101655.28
2018-02-16T08:24:39.259Z,101658.02
2018-02-16T08:27:06.928Z,101662.08
2018-02-16T08:29:34.485Z,101666.33
2018-02-16T08:32:06.223Z,101668.91
2018-02-16T08:34:33.759Z,101669.67
2018-02-16T08:37:01.330Z,101667.36
2018-02-16T08:39:28.925Z,101676.12
2018-02-16T08:41:56.457Z,101688.34
2018-02-16T08:44:24.288Z,101693.63
2018-02-16T08:46:53.304Z,101685.94
2018-02-16T08:49:20.866Z,101691.59
2018-02-16T08:51:48.537Z,101695.03
2018-02-16T08:54:16.178Z,101698.37
2018-02-16T08:56:43.806Z,101704.22
2018-02-16T08:59:11.342Z,101704.54
2018-02-16T09:01:39.023Z,101707.41
2018-02-16T09:04:06.564Z,101707.19
2018-02-16T09:06:34.208Z,101699.66
2018-02-16T09:09:01.813Z,101699.77
2018-02-16T09:11:29.686Z,101699.17
2018-02-16T09:13:57.649Z,101707.33
2018-02-16T09:16:25.202Z,101709.44
2018-02-16T09:18:52.735Z,101710.11
2018-02-16T09:21:20.292Z,101712.09
2018-02-16T09:23:47.870Z,101713.68
2018-02-16T09:26:15.641Z,101713.25
2018-02-16T09:28:43.506Z,101728.81
2018-02-16T09:31:11.070Z,101720.00
2018-02-16T09:33:38.934Z,101722.69
2018-02-16T09:36:10.703Z,101732.48
2018-02-16T09:38:38.284Z,101730.45
2018-02-16T09:41:05.843Z,101731.95
2018-02-16T09:43:33.480Z,101729.67
2018-02-16T09:46:01.006Z,101738.02
2018-02-16T09:48:28.558Z,101744.16
2018-02-16T09:50:56.158Z,101747.77
2018-02-16T09:53:23.684Z,101741.31
2018-02-16T09:55:51.237Z,101746.20
2018-02-16T09:58:18.794Z,101749.43
2018-02-16T10:00:46.420Z,101754.61
2018-02-16T10:03:13.978Z,101753.75
2018-02-16T10:05:41.536Z,101763.78
2018-02-16T10:08:09.211Z,101761.67
2018-02-16T10:10:36.759Z,101768.96
2018-02-16T10:13:04.345Z,101771.09
2018-02-16T10:15:31.941Z,101776.02
2018-02-16T10:17:59.461Z,101779.11
2018-02-16T10:20:27.081Z,101772.82
2018-02-16T10:22:54.973Z,101784.68
2018-02-16T10:25:22.566Z,101782.03
2018-02-16T10:27:50.497Z,101773.13
2018-02-16T10:30:18.370Z,101789.06
2018-02-16T10:32:45.904Z,101778.44
2018-02-16T10:35:13.480Z,101781.75
2018-02-16T10:37:41.032Z,101786.92
2018-02-16T10:40:08.813Z,101786.65
2018-02-16T10:42:36.431Z,101797.98
2018-02-16T10:45:03.996Z,101805.41
2018-02-16T10:47:31.591Z,101798.88
2018-02-16T10:49:59.179Z,101813.97
2018-02-16T10:52:27.024Z,101811.36
2018-02-16T10:54:54.554Z,101822.12
2018-02-16T10:57:22.122Z,101802.92
2018-02-16T10:59:50.013Z,101809.70
2018-02-16T11:02:23.310Z,101813.13
2018-02-16T11:04:56.551Z,101804.98
2018-02-16T11:07:36.523Z,101815.55
2018-02-16T11:10:04.081Z,101804.95
2018-02-16T11:12:31.702Z,101812.16
2018-02-16T11:14:59.311Z,101812.20
2018-02-16T11:17:26.860Z,101819.70
2018-02-16T11:19:54.470Z,101819.28
2018-02-16T11:22:22.007Z,101816.50
2018-02-16T11:24:49.536Z,101820.67
2018-02-16T11:27:17.203Z,101825.20
2018-02-16T11:29:44.783Z,101825.67
2018-02-16T11:32:12.602Z,101828.89
2018-02-16T11:34:40.206Z,101825.54
2018-02-16T11:37:07.765Z,101831.19
2018-02-16T11:39:35.322Z,101826.39
2018-02-16T11:42:02.919Z,101828.73
2018-02-16T11:44:30.491Z,101834.05
2018-02-16T11:46:58.351Z,101830.81
2018-02-16T11:49:25.875Z,101829.01
2018-02-16T11:51:53.458Z,101826.95
2018-02-16T11:54:20.980Z,101830.30
2018-02-16T11:56:48.522Z,101835.05
2018-02-16T11:59:16.352Z,101826.17
2018-02-16T12:01:43.926Z,101826.30
2018-02-16T12:04:11.778Z,101832.27
2018-02-16T12:06:39.782Z,101830.47
2018-02-16T12:09:07.341Z,101836.50
2018-02-16T12:11:34.897Z,101822.98
2018-02-16T12:14:02.738Z,101833.07
2018-02-16T12:16:30.279Z,101842.95
2018-02-16T12:18:57.823Z,101839.28
2018-02-16T12:21:25.629Z,101837.08
2018-02-16T12:23:53.500Z,101840.73
2018-02-16T12:26:21.028Z,101845.00
2018-02-16T12:28:48.611Z,101850.09
2018-02-16T12:31:16.135Z,101854.71
2018-02-16T12:33:43.677Z,101853.38
2018-02-16T12:36:11.237Z,101872.80
2018-02-16T12:38:38.770Z,101860.59
2018-02-16T12:41:06.311Z,101860.34
2018-02-16T12:43:33.857Z,101861.02
2018-02-16T12:46:01.399Z,101857.87
2018-02-16T12:48:28.938Z,101849.28
2018-02-16T12:50:56.765Z,101861.38
2018-02-16T12:53:24.632Z,101855.53
2018-02-16T12:55:52.398Z,101857.52
2018-02-16T12:58:19.970Z,101855.15
2018-02-16T13:00:47.485Z,101858.83
2018-02-16T13:03:15.017Z,101861.94
2018-02-16T13:05:42.590Z,101857.09
2018-02-16T13:08:10.152Z,101859.45
2018-02-16T13:10:37.694Z,101859.11
2018-02-16T13:13:05.266Z,101861.35
2018-02-16T13:15:32.807Z,101857.21
2018-02-16T13:18:00.688Z,101858.00
2018-02-16T13:20:28.256Z,101862.23
2018-02-16T13:22:55.999Z,101865.98
2018-02-16T13:25:23.525Z,101863.40
2018-02-16T13:27:51.140Z,101865.13
2018-02-16T13:30:19.882Z,101868.16
2018-02-16T13:32:47.446Z,101864.45
2018-02-16T13:35:15.016Z,101861.97
2018-02-16T13:37:42.558Z,101863.27
2018-02-16T13:40:10.143Z,101864.09
2018-02-16T13:42:37.724Z,101871.22
2018-02-16T13:45:05.245Z,101870.04
2018-02-16T13:47:32.927Z,101874.55
2018-02-16T13:50:00.533Z,101883.34
2018-02-16T13:52:28.365Z,101883.08
2018-02-16T13:54:55.885Z,101883.37
2018-02-16T13:57:23.458Z,101878.70
2018-02-16T13:59:51.066Z,101885.41
2018-02-16T14:02:18.891Z,101884.66
2018-02-16T14:04:46.450Z,101882.70
2018-02-16T14:07:14.012Z,101893.09
2018-02-16T14:09:41.569Z,101891.09
2018-02-16T14:12:09.450Z,101895.14
2018-02-16T14:14:37.310Z,101894.81
2018-02-16T14:17:04.826Z,101899.44
2018-02-16T14:19:32.740Z,101901.55
2018-02-16T14:22:00.505Z,101899.03
2018-02-16T14:24:28.268Z,101905.38
2018-02-16T14:26:55.881Z,101897.00
2018-02-16T14:29:23.415Z,101896.58
2018-02-16T14:31:51.276Z,101903.33
2018-02-16T14:34:18.869Z,101906.80
2018-02-16T14:36:46.422Z,101910.87
2018-02-16T14:39:13.953Z,101914.55
2018-02-16T14:41:41.571Z,101912.77
2018-02-16T14:44:09.162Z,101916.12
2018-02-16T14:46:36.656Z,101915.84
2018-02-16T14:49:04.204Z,101918.98
2018-02-16T14:51:31.941Z,101922.81
2018-02-16T14:53:59.517Z,101918.34
2018-02-16T14:56:27.195Z,101919.91
2018-02-16T14:58:54.731Z,101926.31
2018-02-16T15:01:22.297Z,101924.70
2018-02-16T15:03:49.850Z,101924.97
2018-02-16T15:06:17.408Z,101927.34
2018-02-16T15:08:44.943Z,101924.11
2018-02-16T15:11:12.525Z,101927.80
2018-02-16T15:13:40.130Z,101923.84
2018-02-16T15:16:07.661Z,101932.32
2018-02-16T15:18:35.235Z,101934.16
2018-02-16T15:21:03.104Z,101930.84
2018-02-16T15:23:30.677Z,101930.91
2018-02-16T15:25:58.410Z,101930.98
2018-02-16T15:28:26.134Z,101929.21
2018-02-16T15:30:53.667Z,101927.07
2018-02-16T15:33:21.232Z,101927.80
2018-02-16T15:35:48.759Z,101930.72
2018-02-16T15:38:16.296Z,101929.17
2018-02-16T15:40:43.898Z,101940.41
2018-02-16T15:43:11.515Z,101940.93
2018-02-16T15:45:39.072Z,101941.92
2018-02-16T15:48:06.634Z,101944.01
2018-02-16T15:50:34.195Z,101943.25
2018-02-16T15:53:01.722Z,101948.02
2018-02-16T15:55:29.492Z,101952.11
2018-02-16T15:57:57.033Z,101949.61
2018-02-16T16:00:24.583Z,101948.66
2018-02-16T16:02:52.175Z,101957.17
2018-02-16T16:05:19.744Z,101958.73
2018-02-16T16:07:47.278Z,101968.62
2018-02-16T16:10:14.883Z,101965.19
2018-02-16T16:12:42.414Z,101963.20
2018-02-16T16:15:09.959Z,101970.38
2018-02-16T16:17:37.570Z,101980.01
2018-02-16T16:20:05.099Z,101978.22
2018-02-16T16:22:32.706Z,101978.63
2018-02-16T16:25:00.320Z,101986.05
2018-02-16T16:27:28.128Z,101980.38
2018-02-16T16:29:55.674Z,101986.95
2018-02-16T16:32:23.256Z,101993.75
2018-02-16T16:34:50.822Z,101997.11
2018-02-16T16:37:18.380Z,102001.72
2018-02-16T16:39:45.991Z,102002.57
2018-02-16T16:42:13.513Z,102005.53
2018-02-16T16:44:41.086Z,102005.38
2018-02-16T16:47:08.702Z,102011.70
2018-02-16T16:49:37.430Z,102014.13
2018-02-16T16:52:05.643Z,102020.61
2018-02-16T16:54:33.753Z,102022.59
2018-02-16T16:57:01.369Z,102027.32
2018-02-16T16:59:28.918Z,102029.73
2018-02-16T17:01:56.472Z,102031.05
2018-02-16T17:04:23.999Z,102042.17
2018-02-16T17:06:51.534Z,102036.13
2018-02-16T17:09:19.134Z,102038.77
2018-02-16T17:11:46.770Z,102052.64
2018-02-16T17:14:14.399Z,102049.84
2018-02-16T17:16:41.986Z,102048.09
2018-02-16T17:19:09.627Z,102047.59
2018-02-16T17:21:37.891Z,102050.40
2018-02-16T17:24:06.274Z,102055.16
2018-02-16T17:26:34.644Z,102058.53
2018-02-16T17:29:02.773Z,102058.53
2018-02-16T17:31:30.865Z,102054.38
2018-02-16T17:33:58.395Z,102055.66
2018-02-16T17:36:26.204Z,102059.43
2018-02-16T17:38:53.876Z,102050.45
2018-02-16T17:41:21.413Z,102055.41
2018-02-16T17:43:48.937Z,102068.53
2018-02-16T17:46:16.542Z,102063.69
2018-02-16T17:48:44.107Z,102064.67
2018-02-16T17:51:13.434Z,102065.06
2018-02-16T17:53:42.451Z,102061.67
2018-02-16T17:56:10.189Z,102069.19
2018-02-16T17:58:38.731Z,102071.36
2018-02-16T18:01:07.573Z,102072.86
2018-02-16T18:03:35.379Z,102072.06
2018-02-16T18:06:02.922Z,102075.02
2018-02-16T18:08:30.497Z,102078.32
2018-02-16T18:10:59.254Z,102080.87
2018-02-16T18:13:26.847Z,102085.86
2018-02-16T18:15:55.136Z,102085.67
2018-02-16T18:18:23.476Z,102088.42
2018-02-16T18:20:51.246Z,102091.61
2018-02-16T18:23:19.359Z,102089.48
2018-02-16T18:25:47.090Z,102085.72
2018-02-16T18:28:14.806Z,102093.41
2018-02-16T18:30:42.664Z,102088.47
2018-02-16T18:33:10.218Z,102090.44
2018-02-16T18:35:37.765Z,102095.18
2018-02-16T18:38:05.713Z,102097.40
2018-02-16T18:40:33.262Z,102087.57
2018-02-16T18:43:00.838Z,102087.67
2018-02-16T18:45:28.409Z,102092.59
2018-02-16T18:47:55.963Z,102093.19
2018-02-16T18:50:23.485Z,102098.10
2018-02-16T18:52:51.851Z,102095.84
2018-02-16T18:55:19.380Z,102101.31
2018-02-16T18:57:46.945Z,102096.45
2018-02-16T19:00:14.512Z,102101.73
2018-02-16T19:02:42.391Z,102102.11
2018-02-16T19:05:10.368Z,102107.36
2018-02-16T19:07:37.905Z,102103.72
2018-02-16T19:10:05.446Z,102106.22
2018-02-16T19:12:32.997Z,102107.69
2018-02-16T19:15:00.544Z,102100.08
2018-02-16T19:17:28.724Z,102102.87
2018-02-16T19:19:56.253Z,102101.59
2018-02-16T19:22:23.847Z,102098.71
2018-02-16T19:24:51.417Z,102100.34
2018-02-16T19:27:19.344Z,102098.37
2018-02-16T19:29:48.070Z,102098.33
2018-02-16T19:32:16.036Z,102100.30
2018-02-16T19:34:43.558Z,102097.80
2018-02-16T19:37:11.133Z,102094.73
2018-02-16T19:39:49.591Z,102090.73
2018-02-16T19:42:18.092Z,102093.00
2018-02-16T19:44:45.608Z,102095.16
2018-02-16T19:47:13.143Z,102094.87
2018-02-16T19:49:40.707Z,102094.92
2018-02-16T19:52:08.255Z,102094.06
2018-02-16T19:54:35.799Z,102095.94
2018-02-16T19:57:03.369Z,102098.58
2018-02-16T19:59:30.969Z,102101.22
2018-02-16T20:01:58.547Z,102101.27
2018-02-16T20:04:26.114Z,102099.74
2018-02-16T20:06:53.670Z,102102.05
2018-02-16T20:09:21.216Z,102099.52
2018-02-16T20:11:48.787Z,102102.26
2018-02-16T20:14:16.315Z,102100.87
2018-02-16T20:16:43.951Z,102107.80
2018-02-16T20:19:11.567Z,102104.03
2018-02-16T20:21:39.126Z,102109.18
2018-02-16T20:24:06.664Z,102113.39
2018-02-16T20:26:34.234Z,102106.00
2018-02-16T20:29:02.071Z,102100.44
2018-02-16T20:31:29.635Z,102106.21
2018-02-16T20:33:57.232Z,102101.40
2018-02-16T20:36:24.786Z,102101.70
2018-02-16T20:38:52.329Z,102105.74
2018-02-16T20:41:19.886Z,102108.41
2018-02-16T20:43:47.424Z,102101.43
2018-02-16T20:46:14.978Z,102106.04
2018-02-16T20:48:42.583Z,102103.58
2018-02-16T20:51:10.421Z,102111.18
2018-02-16T20:53:37.986Z,102114.63
2018-02-16T20:56:05.533Z,102116.81
2018-02-16T20:58:33.114Z,102108.27
2018-02-16T21:01:01.082Z,102108.98
2018-02-16T21:03:28.638Z,102114.15
2018-02-16T21:05:56.220Z,102121.66
2018-02-16T21:08:24.059Z,102123.79
2018-02-16T21:10:51.623Z,102121.15
2018-02-16T21:13:19.194Z,102124.08
2018-02-16T21:15:47.057Z,102129.77
2018-02-16T21:18:14.618Z,102126.56
2018-02-16T21:20:42.184Z,102127.42
2018-02-16T21:23:09.742Z,102126.19
2018-02-16T21:25:37.303Z,102125.41
2018-02-16T21:28:04.884Z,102126.30
2018-02-16T21:30:32.402Z,102129.89
2018-02-16T21:33:00.285Z,102128.53
2018-02-16T21:35:27.838Z,102128.81
2018-02-16T21:37:55.416Z,102131.25
2018-02-16T21:40:22.993Z,102135.57
2018-02-16T21:42:50.542Z,102142.27
2018-02-16T21:45:18.068Z,102145.13
2018-02-16T21:47:45.640Z,102146.91
2018-02-16T21:50:13.175Z,102142.77
2018-02-16T21:52:40.783Z,102146.61
2018-02-16T21:55:08.391Z,102149.04
2018-02-16T21:57:35.977Z,102150.02
2018-02-16T22:00:03.557Z,102149.68
2018-02-16T22:02:31.201Z,102156.84
2018-02-16T22:04:58.722Z,102159.68
2018-02-16T22:07:26.242Z,102156.58
2018-02-16T22:09:53.801Z,102155.59
2018-02-16T22:12:21.323Z,102151.30
2018-02-16T22:14:48.866Z,102149.47
2018-02-16T22:17:16.435Z,102151.05
2018-02-16T22:19:43.950Z,102149.65
2018-02-16T22:22:11.489Z,102146.20
2018-02-16T22:24:39.049Z,102143.44
2018-02-16T22:27:06.577Z,102151.27
2018-02-16T22:29:34.089Z,102155.52
2018-02-16T22:32:01.665Z,102152.24
2018-02-16T22:34:29.194Z,102154.63
2018-02-16T22:36:56.730Z,102164.88
2018-02-16T22:39:24.281Z,102159.48
2018-02-16T22:41:51.837Z,102159.05
2018-02-16T22:44:19.844Z,102160.02
2018-02-16T22:46:47.743Z,102157.86
2018-02-16T22:49:15.287Z,102152.08
2018-02-16T22:51:42.840Z,102148.52
2018-02-16T22:54:10.719Z,102150.42
2018-02-16T22:56:38.269Z,102151.78
2018-02-16T22:59:05.825Z,102157.27
2018-02-16T23:01:33.406Z,102151.22
2018-02-16T23:04:01.028Z,102155.94
2018-02-16T23:06:28.658Z,102151.73
2018-02-16T23:08:57.088Z,102150.25
2018-02-16T23:11:24.701Z,102142.55
2018-02-16T23:13:52.534Z,102147.91
2018-02-16T23:16:20.079Z,102148.92
2018-02-16T23:18:47.804Z,102146.72
2018-02-16T23:21:15.387Z,102145.87
2018-02-16T23:23:42.947Z,102143.14
2018-02-16T23:26:10.743Z,102136.59
2018-02-16T23:28:38.513Z,102144.84
2018-02-16T23:31:06.089Z,102135.84
2018-02-16T23:35:54.850Z,102139.66
2018-02-16T23:38:22.416Z,102136.73
2018-02-16T23:40:50.187Z,102129.67
2018-02-16T23:43:17.669Z,102131.67
2018-02-16T23:45:45.211Z,102132.90
2018-02-16T23:48:12.749Z,102133.11
2018-02-16T23:50:40.303Z,102134.86
2018-02-16T23:53:07.863Z,102130.56
2018-02-16T23:55:35.423Z,102130.22
2018-02-16T23:58:03.050Z,102131.33
